sensor_id;sensor_type;location;lat;lon;timestamp;temperature;humidity
5808;DHT22;2930;42.678;23.312;2023-05-10T00:00:57;9.90;98.50
5808;DHT22;2930;42.678;23.312;2023-05-10T00:03:23;9.90;98.50
5808;DHT22;2930;42.678;23.312;2023-05-10T00:05:48;9.90;98.50
5808;DHT22;2930;42.678;23.312;2023-05-10T00:08:14;9.80;98.50
5808;DHT22;2930;42.678;23.312;2023-05-10T00:10:40;9.90;98.50
5808;DHT22;2930;42.678;23.312;2023-05-10T00:13:06;9.80;98.50
5808;DHT22;2930;42.678;23.312;2023-05-10T00:15:32;9.80;98.50
5808;DHT22;2930;42.678;23.312;2023-05-10T00:17:57;9.80;98.50
5808;DHT22;2930;42.678;23.312;2023-05-10T00:20:23;9.70;98.50
5808;DHT22;2930;42.678;23.312;2023-05-10T00:22:49;9.70;98.50
5808;DHT22;2930;42.678;23.312;2023-05-10T00:25:14;9.60;98.50
5808;DHT22;2930;42.678;23.312;2023-05-10T00:27:40;9.60;98.50
5808;DHT22;2930;42.678;23.312;2023-05-10T00:30:06;9.60;98.50
5808;DHT22;2930;42.678;23.312;2023-05-10T00:32:32;9.50;98.50
5808;DHT22;2930;42.678;23.312;2023-05-10T00:34:58;9.50;98.50
5808;DHT22;2930;42.678;23.312;2023-05-10T00:37:24;9.50;98.50
5808;DHT22;2930;42.678;23.312;2023-05-10T00:39:49;9.50;98.50
5808;DHT22;2930;42.678;23.312;2023-05-10T00:42:15;9.40;98.50
5808;DHT22;2930;42.678;23.312;2023-05-10T00:44:41;9.40;98.50
5808;DHT22;2930;42.678;23.312;2023-05-10T00:47:06;9.40;98.50
5808;DHT22;2930;42.678;23.312;2023-05-10T00:49:32;9.40;98.50
5808;DHT22;2930;42.678;23.312;2023-05-10T00:51:58;9.40;98.50
5808;DHT22;2930;42.678;23.312;2023-05-10T00:54:24;9.30;98.50
5808;DHT22;2930;42.678;23.312;2023-05-10T00:56:50;9.30;98.50
5808;DHT22;2930;42.678;23.312;2023-05-10T00:59:16;9.30;98.50
5808;DHT22;2930;42.678;23.312;2023-05-10T01:01:44;9.30;98.50
5808;DHT22;2930;42.678;23.312;2023-05-10T01:04:11;9.30;98.50
5808;DHT22;2930;42.678;23.312;2023-05-10T01:06:38;9.30;98.50
5808;DHT22;2930;42.678;23.312;2023-05-10T01:09:04;9.30;98.50
5808;DHT22;2930;42.678;23.312;2023-05-10T01:11:30;9.30;98.50
5808;DHT22;2930;42.678;23.312;2023-05-10T01:13:57;9.20;98.50
5808;DHT22;2930;42.678;23.312;2023-05-10T01:16:24;9.30;98.50
5808;DHT22;2930;42.678;23.312;2023-05-10T01:18:52;9.30;98.50
5808;DHT22;2930;42.678;23.312;2023-05-10T01:38:07;9.30;98.50
5808;DHT22;2930;42.678;23.312;2023-05-10T01:40:46;9.30;98.50
5808;DHT22;2930;42.678;23.312;2023-05-10T01:43:29;9.20;98.50
5808;DHT22;2930;42.678;23.312;2023-05-10T01:46:13;9.20;98.50
5808;DHT22;2930;42.678;23.312;2023-05-10T01:48:52;9.10;98.50
5808;DHT22;2930;42.678;23.312;2023-05-10T01:51:29;9.10;98.50
5808;DHT22;2930;42.678;23.312;2023-05-10T01:54:01;9.00;98.50
5808;DHT22;2930;42.678;23.312;2023-05-10T01:56:30;9.00;98.50
5808;DHT22;2930;42.678;23.312;2023-05-10T01:58:57;8.90;98.50
5808;DHT22;2930;42.678;23.312;2023-05-10T02:01:25;8.90;98.50
5808;DHT22;2930;42.678;23.312;2023-05-10T02:03:53;8.80;98.50
5808;DHT22;2930;42.678;23.312;2023-05-10T02:06:21;8.80;98.50
5808;DHT22;2930;42.678;23.312;2023-05-10T02:08:49;8.80;98.50
5808;DHT22;2930;42.678;23.312;2023-05-10T02:11:17;8.80;98.50
5808;DHT22;2930;42.678;23.312;2023-05-10T02:13:44;8.80;98.50
5808;DHT22;2930;42.678;23.312;2023-05-10T02:16:13;8.70;98.50
5808;DHT22;2930;42.678;23.312;2023-05-10T02:18:39;8.70;98.50
5808;DHT22;2930;42.678;23.312;2023-05-10T02:21:06;8.60;98.50
5808;DHT22;2930;42.678;23.312;2023-05-10T02:23:34;8.60;98.50
5808;DHT22;2930;42.678;23.312;2023-05-10T02:26:01;8.50;98.20
5808;DHT22;2930;42.678;23.312;2023-05-10T02:28:28;8.40;98.00
5808;DHT22;2930;42.678;23.312;2023-05-10T02:30:55;8.30;96.20
5808;DHT22;2930;42.678;23.312;2023-05-10T02:33:21;8.20;95.10
5808;DHT22;2930;42.678;23.312;2023-05-10T02:35:47;8.10;94.80
5808;DHT22;2930;42.678;23.312;2023-05-10T02:38:14;8.10;95.20
5808;DHT22;2930;42.678;23.312;2023-05-10T02:40:41;8.00;94.50
5808;DHT22;2930;42.678;23.312;2023-05-10T02:43:12;8.00;94.20
5808;DHT22;2930;42.678;23.312;2023-05-10T02:45:38;7.90;95.00
5808;DHT22;2930;42.678;23.312;2023-05-10T02:48:05;7.80;94.50
5808;DHT22;2930;42.678;23.312;2023-05-10T02:50:33;7.80;94.10
5808;DHT22;2930;42.678;23.312;2023-05-10T02:53:09;7.80;93.70
5808;DHT22;2930;42.678;23.312;2023-05-10T02:55:39;7.70;93.80
5808;DHT22;2930;42.678;23.312;2023-05-10T02:58:06;7.70;93.70
5808;DHT22;2930;42.678;23.312;2023-05-10T03:00:31;7.60;94.20
5808;DHT22;2930;42.678;23.312;2023-05-10T03:02:57;7.60;94.20
5808;DHT22;2930;42.678;23.312;2023-05-10T03:05:23;7.60;94.20
5808;DHT22;2930;42.678;23.312;2023-05-10T03:07:50;7.60;93.90
5808;DHT22;2930;42.678;23.312;2023-05-10T03:10:17;7.60;93.80
5808;DHT22;2930;42.678;23.312;2023-05-10T03:13:10;7.60;94.80
5808;DHT22;2930;42.678;23.312;2023-05-10T03:16:03;7.60;94.10
5808;DHT22;2930;42.678;23.312;2023-05-10T03:21:13;7.60;94.40
5808;DHT22;2930;42.678;23.312;2023-05-10T03:23:46;7.60;94.10
5808;DHT22;2930;42.678;23.312;2023-05-10T03:26:17;7.60;94.00
5808;DHT22;2930;42.678;23.312;2023-05-10T03:28:46;7.60;94.10
5808;DHT22;2930;42.678;23.312;2023-05-10T03:31:13;7.60;94.20
5808;DHT22;2930;42.678;23.312;2023-05-10T03:33:46;7.70;94.20
5808;DHT22;2930;42.678;23.312;2023-05-10T03:36:12;7.70;94.60
5808;DHT22;2930;42.678;23.312;2023-05-10T03:38:38;7.70;94.70
5808;DHT22;2930;42.678;23.312;2023-05-10T03:41:04;7.70;94.10
5808;DHT22;2930;42.678;23.312;2023-05-10T03:43:29;7.70;94.40
5808;DHT22;2930;42.678;23.312;2023-05-10T03:45:55;7.70;94.60
5808;DHT22;2930;42.678;23.312;2023-05-10T03:48:21;7.70;94.20
5808;DHT22;2930;42.678;23.312;2023-05-10T03:50:47;7.80;94.00
5808;DHT22;2930;42.678;23.312;2023-05-10T03:53:15;7.80;94.40
5808;DHT22;2930;42.678;23.312;2023-05-10T03:55:40;7.80;94.60
5808;DHT22;2930;42.678;23.312;2023-05-10T03:58:06;7.90;94.50
5808;DHT22;2930;42.678;23.312;2023-05-10T04:00:32;7.90;94.80
5808;DHT22;2930;42.678;23.312;2023-05-10T04:02:58;8.00;94.90
5808;DHT22;2930;42.678;23.312;2023-05-10T04:05:24;8.00;95.00
5808;DHT22;2930;42.678;23.312;2023-05-10T04:07:49;8.00;94.60
5808;DHT22;2930;42.678;23.312;2023-05-10T04:10:16;8.00;94.80
5808;DHT22;2930;42.678;23.312;2023-05-10T04:12:42;8.00;94.60
5808;DHT22;2930;42.678;23.312;2023-05-10T04:15:08;8.00;94.30
5808;DHT22;2930;42.678;23.312;2023-05-10T04:17:33;8.00;94.50
5808;DHT22;2930;42.678;23.312;2023-05-10T04:19:59;8.00;94.50
5808;DHT22;2930;42.678;23.312;2023-05-10T04:22:25;8.00;95.00
5808;DHT22;2930;42.678;23.312;2023-05-10T04:24:50;8.10;94.90
5808;DHT22;2930;42.678;23.312;2023-05-10T04:27:16;8.10;94.80
5808;DHT22;2930;42.678;23.312;2023-05-10T04:29:42;8.20;94.20
5808;DHT22;2930;42.678;23.312;2023-05-10T04:32:08;8.10;94.40
5808;DHT22;2930;42.678;23.312;2023-05-10T04:34:36;8.20;94.20
5808;DHT22;2930;42.678;23.312;2023-05-10T04:37:01;8.20;94.10
5808;DHT22;2930;42.678;23.312;2023-05-10T04:39:27;8.20;93.90
5808;DHT22;2930;42.678;23.312;2023-05-10T04:41:53;8.20;93.80
5808;DHT22;2930;42.678;23.312;2023-05-10T04:44:18;8.30;94.10
5808;DHT22;2930;42.678;23.312;2023-05-10T04:46:44;8.30;94.60
5808;DHT22;2930;42.678;23.312;2023-05-10T04:49:10;8.30;95.00
5808;DHT22;2930;42.678;23.312;2023-05-10T04:51:35;8.30;95.40
5808;DHT22;2930;42.678;23.312;2023-05-10T04:54:01;8.30;95.00
5808;DHT22;2930;42.678;23.312;2023-05-10T04:56:26;8.30;95.30
5808;DHT22;2930;42.678;23.312;2023-05-10T04:58:52;8.40;95.20
5808;DHT22;2930;42.678;23.312;2023-05-10T05:01:18;8.40;95.20
5808;DHT22;2930;42.678;23.312;2023-05-10T05:03:44;8.40;95.00
5808;DHT22;2930;42.678;23.312;2023-05-10T05:06:09;8.50;94.40
5808;DHT22;2930;42.678;23.312;2023-05-10T05:08:35;8.60;94.60
5808;DHT22;2930;42.678;23.312;2023-05-10T05:11:01;8.60;94.10
5808;DHT22;2930;42.678;23.312;2023-05-10T05:13:26;8.70;94.40
5808;DHT22;2930;42.678;23.312;2023-05-10T05:15:52;8.70;94.50
5808;DHT22;2930;42.678;23.312;2023-05-10T05:18:18;8.70;94.00
5808;DHT22;2930;42.678;23.312;2023-05-10T05:20:44;8.70;93.40
5808;DHT22;2930;42.678;23.312;2023-05-10T05:23:09;8.70;93.40
5808;DHT22;2930;42.678;23.312;2023-05-10T05:25:35;8.70;93.80
5808;DHT22;2930;42.678;23.312;2023-05-10T05:28:01;8.80;93.70
5808;DHT22;2930;42.678;23.312;2023-05-10T05:30:27;8.80;93.00
5808;DHT22;2930;42.678;23.312;2023-05-10T05:32:52;8.80;93.30
5808;DHT22;2930;42.678;23.312;2023-05-10T05:35:18;8.80;93.10
5808;DHT22;2930;42.678;23.312;2023-05-10T05:37:44;8.80;92.70
5808;DHT22;2930;42.678;23.312;2023-05-10T05:40:12;8.80;93.00
5808;DHT22;2930;42.678;23.312;2023-05-10T05:42:39;8.90;93.30
5808;DHT22;2930;42.678;23.312;2023-05-10T05:45:05;8.90;93.00
5808;DHT22;2930;42.678;23.312;2023-05-10T05:47:31;8.90;93.50
5808;DHT22;2930;42.678;23.312;2023-05-10T05:49:56;8.90;93.60
5808;DHT22;2930;42.678;23.312;2023-05-10T05:52:22;8.90;93.50
5808;DHT22;2930;42.678;23.312;2023-05-10T05:54:47;8.90;93.90
5808;DHT22;2930;42.678;23.312;2023-05-10T05:57:13;8.90;93.60
5808;DHT22;2930;42.678;23.312;2023-05-10T05:59:39;8.90;93.40
5808;DHT22;2930;42.678;23.312;2023-05-10T06:02:10;8.80;93.30
5808;DHT22;2930;42.678;23.312;2023-05-10T06:04:36;8.80;93.20
5808;DHT22;2930;42.678;23.312;2023-05-10T06:07:01;8.70;93.30
5808;DHT22;2930;42.678;23.312;2023-05-10T06:09:27;8.70;94.00
5808;DHT22;2930;42.678;23.312;2023-05-10T06:11:52;8.70;94.20
5808;DHT22;2930;42.678;23.312;2023-05-10T06:14:20;8.60;94.90
5808;DHT22;2930;42.678;23.312;2023-05-10T06:16:46;8.60;94.90
5808;DHT22;2930;42.678;23.312;2023-05-10T06:19:12;8.70;95.10
5808;DHT22;2930;42.678;23.312;2023-05-10T06:21:37;8.70;95.10
5808;DHT22;2930;42.678;23.312;2023-05-10T06:24:03;8.80;94.80
5808;DHT22;2930;42.678;23.312;2023-05-10T06:26:29;8.80;94.20
5808;DHT22;2930;42.678;23.312;2023-05-10T06:28:55;8.90;95.70
5808;DHT22;2930;42.678;23.312;2023-05-10T06:31:20;8.90;94.90
5808;DHT22;2930;42.678;23.312;2023-05-10T06:33:46;9.00;94.40
5808;DHT22;2930;42.678;23.312;2023-05-10T06:36:12;9.10;94.20
5808;DHT22;2930;42.678;23.312;2023-05-10T06:38:38;9.10;93.60
5808;DHT22;2930;42.678;23.312;2023-05-10T06:41:04;9.10;93.30
5808;DHT22;2930;42.678;23.312;2023-05-10T06:43:30;9.20;93.40
5808;DHT22;2930;42.678;23.312;2023-05-10T06:45:55;9.20;93.20
5808;DHT22;2930;42.678;23.312;2023-05-10T06:48:21;9.20;93.40
5808;DHT22;2930;42.678;23.312;2023-05-10T06:50:47;9.30;93.50
5808;DHT22;2930;42.678;23.312;2023-05-10T06:53:12;9.30;92.80
5808;DHT22;2930;42.678;23.312;2023-05-10T06:55:39;9.40;91.90
5808;DHT22;2930;42.678;23.312;2023-05-10T06:58:04;9.40;91.60
5808;DHT22;2930;42.678;23.312;2023-05-10T07:00:30;9.40;91.60
5808;DHT22;2930;42.678;23.312;2023-05-10T07:02:56;9.40;91.30
5808;DHT22;2930;42.678;23.312;2023-05-10T07:05:22;9.40;91.40
5808;DHT22;2930;42.678;23.312;2023-05-10T07:07:47;9.40;91.50
5808;DHT22;2930;42.678;23.312;2023-05-10T07:10:13;9.40;91.30
5808;DHT22;2930;42.678;23.312;2023-05-10T07:12:39;9.40;90.80
5808;DHT22;2930;42.678;23.312;2023-05-10T07:15:05;9.40;89.90
5808;DHT22;2930;42.678;23.312;2023-05-10T07:17:31;9.40;90.10
5808;DHT22;2930;42.678;23.312;2023-05-10T07:19:58;9.30;90.50
5808;DHT22;2930;42.678;23.312;2023-05-10T07:22:24;9.30;90.20
5808;DHT22;2930;42.678;23.312;2023-05-10T07:24:50;9.40;89.70
5808;DHT22;2930;42.678;23.312;2023-05-10T07:27:15;9.40;90.20
5808;DHT22;2930;42.678;23.312;2023-05-10T07:33:03;9.30;89.40
5808;DHT22;2930;42.678;23.312;2023-05-10T07:35:29;9.30;90.10
5808;DHT22;2930;42.678;23.312;2023-05-10T07:37:54;9.40;90.10
5808;DHT22;2930;42.678;23.312;2023-05-10T07:40:20;9.40;90.10
5808;DHT22;2930;42.678;23.312;2023-05-10T07:42:46;9.40;90.50
5808;DHT22;2930;42.678;23.312;2023-05-10T07:45:11;9.50;90.20
5808;DHT22;2930;42.678;23.312;2023-05-10T07:47:37;9.50;89.30
5808;DHT22;2930;42.678;23.312;2023-05-10T07:50:03;9.50;89.80
5808;DHT22;2930;42.678;23.312;2023-05-10T07:52:29;9.50;90.20
5808;DHT22;2930;42.678;23.312;2023-05-10T07:54:54;9.60;90.00
5808;DHT22;2930;42.678;23.312;2023-05-10T07:57:22;9.60;88.70
5808;DHT22;2930;42.678;23.312;2023-05-10T07:59:47;9.60;89.30
5808;DHT22;2930;42.678;23.312;2023-05-10T08:02:13;9.70;88.90
5808;DHT22;2930;42.678;23.312;2023-05-10T08:04:39;9.70;89.00
5808;DHT22;2930;42.678;23.312;2023-05-10T08:07:05;9.70;89.10
5808;DHT22;2930;42.678;23.312;2023-05-10T08:09:30;9.70;88.80
5808;DHT22;2930;42.678;23.312;2023-05-10T08:11:56;9.70;88.40
5808;DHT22;2930;42.678;23.312;2023-05-10T08:14:21;9.70;88.40
5808;DHT22;2930;42.678;23.312;2023-05-10T08:16:47;9.80;88.80
5808;DHT22;2930;42.678;23.312;2023-05-10T08:19:13;9.80;88.60
5808;DHT22;2930;42.678;23.312;2023-05-10T08:21:38;9.90;88.10
5808;DHT22;2930;42.678;23.312;2023-05-10T08:24:06;9.90;88.00
5808;DHT22;2930;42.678;23.312;2023-05-10T08:26:32;10.00;87.70
5808;DHT22;2930;42.678;23.312;2023-05-10T08:28:58;10.00;87.80
5808;DHT22;2930;42.678;23.312;2023-05-10T08:31:23;10.00;87.00
5808;DHT22;2930;42.678;23.312;2023-05-10T08:33:49;10.00;88.10
5808;DHT22;2930;42.678;23.312;2023-05-10T08:36:16;10.10;88.30
5808;DHT22;2930;42.678;23.312;2023-05-10T08:38:53;10.10;87.40
5808;DHT22;2930;42.678;23.312;2023-05-10T08:41:22;10.10;88.70
5808;DHT22;2930;42.678;23.312;2023-05-10T08:43:50;10.20;89.40
5808;DHT22;2930;42.678;23.312;2023-05-10T08:46:17;10.20;89.30
5808;DHT22;2930;42.678;23.312;2023-05-10T08:48:48;10.20;88.70
5808;DHT22;2930;42.678;23.312;2023-05-10T08:51:15;10.20;88.70
5808;DHT22;2930;42.678;23.312;2023-05-10T08:53:43;10.20;88.50
5808;DHT22;2930;42.678;23.312;2023-05-10T08:56:09;10.30;89.00
5808;DHT22;2930;42.678;23.312;2023-05-10T08:58:36;10.20;89.70
5808;DHT22;2930;42.678;23.312;2023-05-10T09:01:02;10.30;90.10
5808;DHT22;2930;42.678;23.312;2023-05-10T09:03:28;10.30;89.80
5808;DHT22;2930;42.678;23.312;2023-05-10T09:05:55;10.40;90.10
5808;DHT22;2930;42.678;23.312;2023-05-10T09:08:24;10.50;89.60
5808;DHT22;2930;42.678;23.312;2023-05-10T09:10:54;10.50;88.80
5808;DHT22;2930;42.678;23.312;2023-05-10T09:13:21;10.40;87.70
5808;DHT22;2930;42.678;23.312;2023-05-10T09:15:48;10.40;89.00
5808;DHT22;2930;42.678;23.312;2023-05-10T09:18:14;10.40;89.00
5808;DHT22;2930;42.678;23.312;2023-05-10T09:20:40;10.40;88.90
5808;DHT22;2930;42.678;23.312;2023-05-10T09:23:06;10.40;88.60
5808;DHT22;2930;42.678;23.312;2023-05-10T09:25:32;10.30;88.20
5808;DHT22;2930;42.678;23.312;2023-05-10T09:28:01;10.20;88.40
5808;DHT22;2930;42.678;23.312;2023-05-10T09:30:28;10.20;88.90
5808;DHT22;2930;42.678;23.312;2023-05-10T09:32:55;10.20;88.90
5808;DHT22;2930;42.678;23.312;2023-05-10T09:35:24;10.20;88.30
5808;DHT22;2930;42.678;23.312;2023-05-10T09:37:53;10.20;88.20
5808;DHT22;2930;42.678;23.312;2023-05-10T09:40:23;10.30;87.70
5808;DHT22;2930;42.678;23.312;2023-05-10T09:43:03;10.40;88.90
5808;DHT22;2930;42.678;23.312;2023-05-10T09:45:33;10.50;88.70
5808;DHT22;2930;42.678;23.312;2023-05-10T09:48:01;10.60;87.70
5808;DHT22;2930;42.678;23.312;2023-05-10T09:50:28;10.60;87.00
5808;DHT22;2930;42.678;23.312;2023-05-10T09:52:58;10.60;86.00
5808;DHT22;2930;42.678;23.312;2023-05-10T09:55:26;10.60;86.90
5808;DHT22;2930;42.678;23.312;2023-05-10T09:58:02;10.60;86.00
5808;DHT22;2930;42.678;23.312;2023-05-10T10:00:34;10.60;86.20
5808;DHT22;2930;42.678;23.312;2023-05-10T10:03:01;10.60;86.00
5808;DHT22;2930;42.678;23.312;2023-05-10T10:05:33;10.60;85.70
5808;DHT22;2930;42.678;23.312;2023-05-10T10:07:59;10.70;85.90
5808;DHT22;2930;42.678;23.312;2023-05-10T10:10:26;10.70;85.90
5808;DHT22;2930;42.678;23.312;2023-05-10T10:12:53;10.60;85.00
5808;DHT22;2930;42.678;23.312;2023-05-10T10:15:20;10.70;86.60
5808;DHT22;2930;42.678;23.312;2023-05-10T10:17:46;10.80;85.50
5808;DHT22;2930;42.678;23.312;2023-05-10T10:20:13;10.90;86.30
5808;DHT22;2930;42.678;23.312;2023-05-10T10:22:39;11.00;86.10
5808;DHT22;2930;42.678;23.312;2023-05-10T10:25:06;11.10;86.00
5808;DHT22;2930;42.678;23.312;2023-05-10T10:30:43;11.40;85.70
5808;DHT22;2930;42.678;23.312;2023-05-10T10:36:15;11.10;83.80
5808;DHT22;2930;42.678;23.312;2023-05-10T10:41:36;11.20;85.10
5808;DHT22;2930;42.678;23.312;2023-05-10T10:44:33;11.10;83.50
5808;DHT22;2930;42.678;23.312;2023-05-10T10:54:59;10.90;84.50
5808;DHT22;2930;42.678;23.312;2023-05-10T10:57:26;10.90;84.70
5808;DHT22;2930;42.678;23.312;2023-05-10T11:00:17;10.90;86.10
5808;DHT22;2930;42.678;23.312;2023-05-10T11:07:58;11.00;84.20
5808;DHT22;2930;42.678;23.312;2023-05-10T11:10:25;11.10;84.80
5808;DHT22;2930;42.678;23.312;2023-05-10T11:13:01;11.10;84.70
5808;DHT22;2930;42.678;23.312;2023-05-10T11:15:38;11.20;84.50
5808;DHT22;2930;42.678;23.312;2023-05-10T11:18:21;11.20;83.60
5808;DHT22;2930;42.678;23.312;2023-05-10T11:20:56;11.30;83.80
5808;DHT22;2930;42.678;23.312;2023-05-10T11:23:23;11.30;84.40
5808;DHT22;2930;42.678;23.312;2023-05-10T11:25:49;11.30;83.30
5808;DHT22;2930;42.678;23.312;2023-05-10T11:28:17;11.30;83.90
5808;DHT22;2930;42.678;23.312;2023-05-10T11:30:44;11.40;84.40
5808;DHT22;2930;42.678;23.312;2023-05-10T11:33:16;11.40;83.30
5808;DHT22;2930;42.678;23.312;2023-05-10T11:35:42;11.40;83.10
5808;DHT22;2930;42.678;23.312;2023-05-10T11:38:09;11.50;83.70
5808;DHT22;2930;42.678;23.312;2023-05-10T11:40:35;11.40;83.20
5808;DHT22;2930;42.678;23.312;2023-05-10T11:43:02;11.40;83.80
5808;DHT22;2930;42.678;23.312;2023-05-10T11:45:28;11.40;84.30
5808;DHT22;2930;42.678;23.312;2023-05-10T11:47:56;11.40;84.60
5808;DHT22;2930;42.678;23.312;2023-05-10T11:50:22;11.40;84.10
5808;DHT22;2930;42.678;23.312;2023-05-10T11:52:56;11.50;83.90
5808;DHT22;2930;42.678;23.312;2023-05-10T11:55:22;11.50;84.30
5808;DHT22;2930;42.678;23.312;2023-05-10T11:57:55;11.50;85.00
5808;DHT22;2930;42.678;23.312;2023-05-10T12:00:21;11.50;84.60
5808;DHT22;2930;42.678;23.312;2023-05-10T12:02:47;11.40;83.90
5808;DHT22;2930;42.678;23.312;2023-05-10T12:05:13;11.50;84.80
5808;DHT22;2930;42.678;23.312;2023-05-10T12:07:39;11.50;84.40
5808;DHT22;2930;42.678;23.312;2023-05-10T12:10:06;11.50;84.80
5808;DHT22;2930;42.678;23.312;2023-05-10T12:12:45;11.50;84.20
5808;DHT22;2930;42.678;23.312;2023-05-10T12:15:23;11.50;84.00
5808;DHT22;2930;42.678;23.312;2023-05-10T12:17:49;11.50;83.90
5808;DHT22;2930;42.678;23.312;2023-05-10T12:20:20;11.50;84.50
5808;DHT22;2930;42.678;23.312;2023-05-10T12:22:56;11.60;84.40
5808;DHT22;2930;42.678;23.312;2023-05-10T12:25:24;11.60;84.70
5808;DHT22;2930;42.678;23.312;2023-05-10T12:27:57;11.70;83.70
5808;DHT22;2930;42.678;23.312;2023-05-10T12:30:25;11.60;83.20
5808;DHT22;2930;42.678;23.312;2023-05-10T12:32:51;11.60;83.70
5808;DHT22;2930;42.678;23.312;2023-05-10T12:35:17;11.60;84.20
5808;DHT22;2930;42.678;23.312;2023-05-10T12:37:46;11.60;83.20
5808;DHT22;2930;42.678;23.312;2023-05-10T12:40:12;11.50;83.10
5808;DHT22;2930;42.678;23.312;2023-05-10T12:42:38;11.40;83.40
5808;DHT22;2930;42.678;23.312;2023-05-10T12:45:05;11.40;84.00
5808;DHT22;2930;42.678;23.312;2023-05-10T12:47:32;11.40;84.10
5808;DHT22;2930;42.678;23.312;2023-05-10T12:49:58;11.40;84.00
5808;DHT22;2930;42.678;23.312;2023-05-10T12:52:25;11.50;84.40
5808;DHT22;2930;42.678;23.312;2023-05-10T12:54:51;11.50;84.10
5808;DHT22;2930;42.678;23.312;2023-05-10T12:57:18;11.40;84.10
5808;DHT22;2930;42.678;23.312;2023-05-10T12:59:43;11.50;84.50
5808;DHT22;2930;42.678;23.312;2023-05-10T13:02:09;11.50;84.10
5808;DHT22;2930;42.678;23.312;2023-05-10T13:04:35;11.50;84.10
5808;DHT22;2930;42.678;23.312;2023-05-10T13:07:05;11.40;84.50
5808;DHT22;2930;42.678;23.312;2023-05-10T13:09:31;11.50;84.50
5808;DHT22;2930;42.678;23.312;2023-05-10T13:11:56;11.30;84.70
5808;DHT22;2930;42.678;23.312;2023-05-10T13:14:22;11.40;85.10
5808;DHT22;2930;42.678;23.312;2023-05-10T13:16:48;11.40;85.40
5808;DHT22;2930;42.678;23.312;2023-05-10T13:19:14;11.40;84.90
5808;DHT22;2930;42.678;23.312;2023-05-10T13:21:39;11.50;84.70
5808;DHT22;2930;42.678;23.312;2023-05-10T13:24:06;11.30;84.70
5808;DHT22;2930;42.678;23.312;2023-05-10T13:26:32;11.20;85.20
5808;DHT22;2930;42.678;23.312;2023-05-10T13:28:58;11.30;85.30
5808;DHT22;2930;42.678;23.312;2023-05-10T13:31:24;11.40;85.60
5808;DHT22;2930;42.678;23.312;2023-05-10T13:33:50;11.40;85.10
5808;DHT22;2930;42.678;23.312;2023-05-10T13:36:15;11.40;85.40
5808;DHT22;2930;42.678;23.312;2023-05-10T13:38:41;11.40;85.60
5808;DHT22;2930;42.678;23.312;2023-05-10T13:41:07;11.40;84.90
5808;DHT22;2930;42.678;23.312;2023-05-10T13:43:32;11.40;84.70
5808;DHT22;2930;42.678;23.312;2023-05-10T13:45:58;11.40;84.40
5808;DHT22;2930;42.678;23.312;2023-05-10T13:48:24;11.50;84.50
5808;DHT22;2930;42.678;23.312;2023-05-10T13:50:49;11.50;84.90
5808;DHT22;2930;42.678;23.312;2023-05-10T13:53:15;11.50;84.10
5808;DHT22;2930;42.678;23.312;2023-05-10T13:59:03;11.50;84.20
5808;DHT22;2930;42.678;23.312;2023-05-10T14:01:28;11.40;84.60
5808;DHT22;2930;42.678;23.312;2023-05-10T14:03:54;11.40;84.80
5808;DHT22;2930;42.678;23.312;2023-05-10T14:06:20;11.30;84.90
5808;DHT22;2930;42.678;23.312;2023-05-10T14:08:45;11.30;85.10
5808;DHT22;2930;42.678;23.312;2023-05-10T14:11:11;11.30;85.20
5808;DHT22;2930;42.678;23.312;2023-05-10T14:13:37;11.40;85.80
5808;DHT22;2930;42.678;23.312;2023-05-10T14:16:03;11.40;85.60
5808;DHT22;2930;42.678;23.312;2023-05-10T14:18:28;11.40;85.30
5808;DHT22;2930;42.678;23.312;2023-05-10T14:20:54;11.50;85.00
5808;DHT22;2930;42.678;23.312;2023-05-10T14:23:22;11.50;84.60
5808;DHT22;2930;42.678;23.312;2023-05-10T14:25:51;11.50;84.90
5808;DHT22;2930;42.678;23.312;2023-05-10T14:28:17;11.50;84.70
5808;DHT22;2930;42.678;23.312;2023-05-10T14:30:44;11.40;85.00
5808;DHT22;2930;42.678;23.312;2023-05-10T14:33:10;11.40;85.30
5808;DHT22;2930;42.678;23.312;2023-05-10T14:35:36;11.40;85.40
5808;DHT22;2930;42.678;23.312;2023-05-10T14:38:02;11.40;85.20
5808;DHT22;2930;42.678;23.312;2023-05-10T14:40:29;11.40;85.10
5808;DHT22;2930;42.678;23.312;2023-05-10T14:42:54;11.50;85.40
5808;DHT22;2930;42.678;23.312;2023-05-10T14:45:24;11.50;85.80
5808;DHT22;2930;42.678;23.312;2023-05-10T14:47:50;11.50;85.10
5808;DHT22;2930;42.678;23.312;2023-05-10T14:50:15;11.50;85.00
5808;DHT22;2930;42.678;23.312;2023-05-10T14:55:58;11.60;85.30
5808;DHT22;2930;42.678;23.312;2023-05-10T14:58:26;11.60;85.70
5808;DHT22;2930;42.678;23.312;2023-05-10T15:00:52;11.60;84.90
5808;DHT22;2930;42.678;23.312;2023-05-10T15:03:18;11.60;85.10
5808;DHT22;2930;42.678;23.312;2023-05-10T15:05:43;11.60;85.50
5808;DHT22;2930;42.678;23.312;2023-05-10T15:08:09;11.60;85.40
5808;DHT22;2930;42.678;23.312;2023-05-10T15:10:35;11.60;85.10
5808;DHT22;2930;42.678;23.312;2023-05-10T15:13:03;11.50;85.00
5808;DHT22;2930;42.678;23.312;2023-05-10T15:15:28;11.50;85.50
5808;DHT22;2930;42.678;23.312;2023-05-10T15:17:54;11.50;86.10
5808;DHT22;2930;42.678;23.312;2023-05-10T15:20:20;11.50;84.90
5808;DHT22;2930;42.678;23.312;2023-05-10T15:22:45;11.50;85.10
5808;DHT22;2930;42.678;23.312;2023-05-10T15:25:12;11.50;84.80
5808;DHT22;2930;42.678;23.312;2023-05-10T15:27:38;11.40;85.40
5808;DHT22;2930;42.678;23.312;2023-05-10T15:30:04;11.30;85.40
5808;DHT22;2930;42.678;23.312;2023-05-10T15:32:30;11.20;85.50
5808;DHT22;2930;42.678;23.312;2023-05-10T15:34:55;11.20;85.40
5808;DHT22;2930;42.678;23.312;2023-05-10T15:37:21;11.20;85.80
5808;DHT22;2930;42.678;23.312;2023-05-10T15:39:48;11.20;85.90
5808;DHT22;2930;42.678;23.312;2023-05-10T15:42:14;11.20;86.50
5808;DHT22;2930;42.678;23.312;2023-05-10T15:44:41;11.10;85.80
5808;DHT22;2930;42.678;23.312;2023-05-10T15:47:06;11.20;85.50
5808;DHT22;2930;42.678;23.312;2023-05-10T15:49:32;11.10;85.40
5808;DHT22;2930;42.678;23.312;2023-05-10T15:51:58;11.10;85.90
5808;DHT22;2930;42.678;23.312;2023-05-10T15:54:24;11.20;85.90
5808;DHT22;2930;42.678;23.312;2023-05-10T15:56:50;11.10;85.30
5808;DHT22;2930;42.678;23.312;2023-05-10T15:59:15;11.10;85.70
5808;DHT22;2930;42.678;23.312;2023-05-10T16:01:41;11.10;85.60
5808;DHT22;2930;42.678;23.312;2023-05-10T16:04:07;11.10;85.40
5808;DHT22;2930;42.678;23.312;2023-05-10T16:06:35;11.10;85.50
5808;DHT22;2930;42.678;23.312;2023-05-10T16:09:02;11.10;85.40
5808;DHT22;2930;42.678;23.312;2023-05-10T16:11:28;11.00;85.40
5808;DHT22;2930;42.678;23.312;2023-05-10T16:13:53;10.90;85.70
5808;DHT22;2930;42.678;23.312;2023-05-10T16:16:19;10.80;85.90
5808;DHT22;2930;42.678;23.312;2023-05-10T16:18:44;10.90;85.90
5808;DHT22;2930;42.678;23.312;2023-05-10T16:21:10;10.90;85.90
5808;DHT22;2930;42.678;23.312;2023-05-10T16:23:36;10.90;85.80
5808;DHT22;2930;42.678;23.312;2023-05-10T16:26:02;10.90;85.70
5808;DHT22;2930;42.678;23.312;2023-05-10T16:28:27;10.90;85.80
5808;DHT22;2930;42.678;23.312;2023-05-10T16:30:53;11.00;85.80
5808;DHT22;2930;42.678;23.312;2023-05-10T16:33:18;11.00;85.90
5808;DHT22;2930;42.678;23.312;2023-05-10T16:35:44;11.00;85.70
5808;DHT22;2930;42.678;23.312;2023-05-10T16:38:10;11.10;86.00
5808;DHT22;2930;42.678;23.312;2023-05-10T16:40:35;11.10;86.00
5808;DHT22;2930;42.678;23.312;2023-05-10T16:43:01;11.00;86.30
5808;DHT22;2930;42.678;23.312;2023-05-10T16:45:27;11.00;86.10